createdAt,value
2022-11-05T00:00:37.751Z,97093.00
2022-11-05T00:03:24.785Z,97094.00
2022-11-05T00:06:12.866Z,97098.00
2022-11-05T00:09:14.852Z,97113.00
2022-11-05T00:12:00.705Z,97105.00
2022-11-05T00:14:46.305Z,97118.00
2022-11-05T00:17:14.388Z,97108.00
2022-11-05T00:19:43.806Z,97122.00
2022-11-05T00:22:29.346Z,97120.00
2022-11-05T00:25:14.213Z,97129.00
2022-11-05T00:27:42.489Z,97122.00
2022-11-05T00:30:12.355Z,97123.00
2022-11-05T00:32:40.586Z,97114.00
2022-11-05T00:35:10.572Z,97113.00
2022-11-05T00:37:38.879Z,97115.00
2022-11-05T00:40:09.109Z,97114.00
2022-11-05T00:42:55.016Z,97132.00
2022-11-05T00:45:23.174Z,97124.00
2022-11-05T00:48:08.978Z,97125.00
2022-11-05T00:50:38.520Z,97141.00
2022-11-05T00:53:07.483Z,97139.00
2022-11-05T00:55:39.050Z,97141.00
2022-11-05T00:58:10.561Z,97135.00
2022-11-05T01:00:41.598Z,97136.00
2022-11-05T01:03:14.202Z,97144.00
2022-11-05T01:05:46.594Z,97144.00
2022-11-05T01:08:18.617Z,97142.00
2022-11-05T01:10:49.948Z,97154.00
2022-11-05T01:13:21.394Z,97149.00
2022-11-05T01:15:51.039Z,97161.00
2022-11-05T01:18:19.918Z,97151.00
2022-11-05T01:20:50.190Z,97156.00
2022-11-05T01:23:20.360Z,97156.00
2022-11-05T01:25:49.013Z,97168.00
2022-11-05T01:28:17.227Z,97166.00
2022-11-05T01:30:45.425Z,97162.00
2022-11-05T01:33:13.889Z,97169.00
2022-11-05T01:35:42.211Z,97176.00
2022-11-05T01:38:11.771Z,97177.00
2022-11-05T01:40:44.033Z,97180.00
2022-11-05T01:43:18.074Z,97183.00
2022-11-05T01:45:50.573Z,97174.00
2022-11-05T01:48:22.825Z,97171.00
2022-11-05T01:50:57.874Z,97186.00
2022-11-05T01:53:36.762Z,97180.00
2022-11-05T01:56:10.243Z,97177.00
2022-11-05T01:58:44.155Z,97192.00
2022-11-05T02:01:13.600Z,97191.00
2022-11-05T02:03:43.815Z,97187.00
2022-11-05T02:06:14.589Z,97189.00
2022-11-05T02:09:00.736Z,97203.00
2022-11-05T02:11:29.938Z,97186.00
2022-11-05T02:13:58.132Z,97182.00
2022-11-05T02:16:40.589Z,97192.00
2022-11-05T02:19:55.271Z,97206.00
2022-11-05T02:23:41.058Z,97206.00
2022-11-05T02:27:02.199Z,97215.00
2022-11-05T02:30:23.095Z,97209.00
2022-11-05T02:33:21.483Z,97218.00
2022-11-05T02:36:29.539Z,97217.00
2022-11-05T02:39:14.342Z,97216.00
2022-11-05T02:41:58.133Z,97222.00
2022-11-05T02:44:41.198Z,97220.00
2022-11-05T02:47:19.788Z,97210.00
2022-11-05T02:50:02.482Z,97223.00
2022-11-05T02:52:38.187Z,97213.00
2022-11-05T02:55:17.651Z,97205.00
2022-11-05T02:57:48.431Z,97217.00
2022-11-05T03:00:51.337Z,97219.00
2022-11-05T03:03:28.052Z,97208.00
2022-11-05T03:06:20.685Z,97222.00
2022-11-05T03:09:11.179Z,97214.00
2022-11-05T03:11:57.930Z,97197.00
2022-11-05T03:14:38.260Z,97192.00
2022-11-05T03:17:19.147Z,97199.00
2022-11-05T03:19:54.677Z,97208.00
2022-11-05T03:22:30.182Z,97211.00
2022-11-05T03:25:04.586Z,97216.00
2022-11-05T03:27:40.834Z,97217.00
2022-11-05T03:30:13.558Z,97220.00
2022-11-05T03:32:47.390Z,97228.00
2022-11-05T03:35:21.631Z,97236.00
2022-11-05T03:37:57.178Z,97241.00
2022-11-05T03:40:27.274Z,97236.00
2022-11-05T03:43:00.336Z,97232.00
2022-11-05T03:45:35.076Z,97229.00
2022-11-05T03:48:05.617Z,97230.00
2022-11-05T03:50:41.725Z,97237.00
2022-11-05T03:53:18.000Z,97241.00
2022-11-05T03:55:53.828Z,97243.00
2022-11-05T03:58:24.563Z,97243.00
2022-11-05T04:00:52.881Z,97254.00
2022-11-05T04:03:21.209Z,97244.00
2022-11-05T04:06:10.249Z,97258.00
2022-11-05T04:08:57.496Z,97247.00
2022-11-05T04:11:43.027Z,97257.00
2022-11-05T04:14:11.146Z,97246.00
2022-11-05T04:16:56.973Z,97261.00
2022-11-05T04:19:39.000Z,97265.00
2022-11-05T04:22:24.852Z,97263.00
2022-11-05T04:24:54.356Z,97261.00
2022-11-05T04:27:22.504Z,97259.00
2022-11-05T04:30:08.227Z,97260.00
2022-11-05T04:32:36.375Z,97259.00
2022-11-05T04:35:04.725Z,97278.00
2022-11-05T04:37:32.866Z,97270.00
2022-11-05T04:40:02.349Z,97275.00
2022-11-05T04:42:30.456Z,97286.00
2022-11-05T04:44:58.499Z,97279.00
2022-11-05T04:47:26.616Z,97293.00
2022-11-05T04:49:54.732Z,97289.00
2022-11-05T04:52:22.904Z,97295.00
2022-11-05T04:54:50.987Z,97297.00
2022-11-05T04:57:20.417Z,97310.00
2022-11-05T04:59:49.826Z,97306.00
2022-11-05T05:02:18.073Z,97320.00
2022-11-05T05:04:46.638Z,97319.00
2022-11-05T05:07:14.782Z,97316.00
2022-11-05T05:09:42.940Z,97322.00
2022-11-05T05:12:11.069Z,97328.00
2022-11-05T05:14:40.595Z,97325.00
2022-11-05T05:17:08.733Z,97337.00
2022-11-05T05:20:04.345Z,97331.00
2022-11-05T05:22:31.473Z,97336.00
2022-11-05T05:24:59.973Z,97341.00
2022-11-05T05:27:30.293Z,97337.00
2022-11-05T05:30:01.014Z,97346.00
2022-11-05T05:32:29.167Z,97340.00
2022-11-05T05:34:57.611Z,97353.00
2022-11-05T05:37:25.919Z,97344.00
2022-11-05T05:39:54.577Z,97360.00
2022-11-05T05:42:22.915Z,97359.00
2022-11-05T05:44:51.028Z,97366.00
2022-11-05T05:47:20.493Z,97361.00
2022-11-05T05:49:48.640Z,97378.00
2022-11-05T05:52:16.841Z,97375.00
2022-11-05T05:54:44.993Z,97383.00
2022-11-05T05:57:13.158Z,97373.00
2022-11-05T05:59:41.264Z,97374.00
2022-11-05T06:02:10.866Z,97390.00
2022-11-05T06:04:40.442Z,97382.00
2022-11-05T06:07:09.154Z,97380.00
2022-11-05T06:09:37.265Z,97385.00
2022-11-05T06:12:06.273Z,97395.00
2022-11-05T06:14:34.367Z,97398.00
2022-11-05T06:17:02.508Z,97394.00
2022-11-05T06:19:30.655Z,97395.00
2022-11-05T06:22:00.245Z,97401.00
2022-11-05T06:24:28.470Z,97401.00
2022-11-05T06:26:56.643Z,97409.00
2022-11-05T06:29:24.800Z,97421.00
2022-11-05T06:31:53.063Z,97410.00
2022-11-05T06:34:21.160Z,97418.00
2022-11-05T06:36:49.234Z,97415.00
2022-11-05T06:39:18.683Z,97413.00
2022-11-05T06:42:11.938Z,97417.00
2022-11-05T06:44:34.872Z,97425.00
2022-11-05T06:47:03.004Z,97430.00
2022-11-05T06:49:31.184Z,97428.00
2022-11-05T06:51:59.626Z,97438.00
2022-11-05T06:54:29.138Z,97431.00
2022-11-05T06:56:57.274Z,97440.00
2022-11-05T06:59:25.455Z,97454.00
2022-11-05T07:01:53.992Z,97434.00
2022-11-05T07:04:22.213Z,97454.00
2022-11-05T07:06:50.386Z,97452.00
2022-11-05T07:09:18.565Z,97458.00
2022-11-05T07:11:48.126Z,97465.00
2022-11-05T07:14:16.334Z,97452.00
2022-11-05T07:16:44.554Z,97469.00
2022-11-05T07:19:12.912Z,97468.00
2022-11-05T07:21:41.009Z,97479.00
2022-11-05T07:24:09.921Z,97479.00
2022-11-05T07:26:38.470Z,97471.00
2022-11-05T07:29:07.987Z,97486.00
2022-11-05T07:31:36.746Z,97492.00
2022-11-05T07:34:04.973Z,97480.00
2022-11-05T07:36:33.059Z,97487.00
2022-11-05T07:39:01.310Z,97497.00
2022-11-05T07:41:29.759Z,97509.00
2022-11-05T07:43:57.977Z,97495.00
2022-11-05T07:46:27.535Z,97512.00
2022-11-05T07:48:55.721Z,97518.00
2022-11-05T07:51:24.028Z,97528.00
2022-11-05T07:53:52.275Z,97530.00
2022-11-05T07:56:20.409Z,97523.00
2022-11-05T07:58:48.719Z,97528.00
2022-11-05T08:01:17.213Z,97530.00
2022-11-05T08:03:47.050Z,97516.00
2022-11-05T08:06:15.301Z,97528.00
2022-11-05T08:08:43.449Z,97521.00
2022-11-05T08:11:13.047Z,97532.00
2022-11-05T08:13:42.707Z,97521.00
2022-11-05T08:16:10.989Z,97531.00
2022-11-05T08:18:39.391Z,97531.00
2022-11-05T08:21:09.500Z,97523.00
2022-11-05T08:23:38.949Z,97531.00
2022-11-05T08:26:07.231Z,97540.00
2022-11-05T08:28:35.372Z,97530.00
2022-11-05T08:31:03.568Z,97533.00
2022-11-05T08:33:33.062Z,97527.00
2022-11-05T08:36:04.328Z,97533.00
2022-11-05T08:38:33.877Z,97530.00
2022-11-05T08:41:02.233Z,97530.00
2022-11-05T08:43:30.356Z,97540.00
2022-11-05T08:46:02.081Z,97541.00
2022-11-05T08:48:30.469Z,97553.00
2022-11-05T08:51:02.531Z,97549.00
2022-11-05T08:53:30.721Z,97551.00
2022-11-05T08:56:03.320Z,97543.00
2022-11-05T08:58:32.739Z,97540.00
2022-11-05T09:01:04.945Z,97546.00
2022-11-05T09:03:33.707Z,97551.00
2022-11-05T09:06:01.878Z,97555.00
2022-11-05T09:08:30.013Z,97560.00
2022-11-05T09:10:58.366Z,97562.00
2022-11-05T09:13:28.369Z,97575.00
2022-11-05T09:15:58.945Z,97577.00
2022-11-05T09:18:27.345Z,97570.00
2022-11-05T09:20:55.446Z,97567.00
2022-11-05T09:23:23.574Z,97583.00
2022-11-05T09:25:51.710Z,97573.00
2022-11-05T09:28:23.631Z,97573.00
2022-11-05T09:30:53.966Z,97578.00
2022-11-05T09:33:25.304Z,97589.00
2022-11-05T09:35:54.179Z,97589.00
2022-11-05T09:38:22.783Z,97588.00
2022-11-05T09:41:00.591Z,97593.00
2022-11-05T09:43:36.275Z,97589.00
2022-11-05T09:46:14.986Z,97597.00
2022-11-05T09:48:48.506Z,97597.00
2022-11-05T09:51:22.582Z,97605.00
2022-11-05T09:53:53.422Z,97610.00
2022-11-05T09:56:25.931Z,97596.00
2022-11-05T09:58:59.993Z,97609.00
2022-11-05T10:01:35.667Z,97604.00
2022-11-05T10:04:10.318Z,97610.00
2022-11-05T10:06:49.369Z,97604.00
2022-11-05T10:09:26.188Z,97597.00
2022-11-05T10:12:03.411Z,97610.00
2022-11-05T10:14:41.238Z,97598.00
2022-11-05T10:17:21.210Z,97598.00
2022-11-05T10:19:56.388Z,97603.00
2022-11-05T10:22:26.293Z,97601.00
2022-11-05T10:24:56.121Z,97606.00
2022-11-05T10:27:30.127Z,97615.00
2022-11-05T10:29:58.905Z,97599.00
2022-11-05T10:32:32.853Z,97618.00
2022-11-05T10:35:05.028Z,97615.00
2022-11-05T10:37:40.685Z,97617.00
2022-11-05T10:40:20.716Z,97624.00
2022-11-05T10:43:01.933Z,97625.00
2022-11-05T10:45:46.449Z,97635.00
2022-11-05T10:48:46.509Z,97625.00
2022-11-05T10:51:16.126Z,97625.00
2022-11-05T10:54:00.373Z,97626.00
2022-11-05T10:56:35.128Z,97633.00
2022-11-05T10:59:11.860Z,97620.00
2022-11-05T11:01:41.322Z,97633.00
2022-11-05T11:04:21.487Z,97626.00
2022-11-05T11:06:55.053Z,97620.00
2022-11-05T11:09:29.721Z,97626.00
2022-11-05T11:12:03.897Z,97635.00
2022-11-05T11:14:32.735Z,97621.00
2022-11-05T11:17:27.637Z,97633.00
2022-11-05T11:23:12.448Z,97632.00
2022-11-05T11:25:51.763Z,97632.00
2022-11-05T11:28:26.328Z,97627.00
2022-11-05T11:31:06.709Z,97633.00
2022-11-05T11:33:37.323Z,97626.00
2022-11-05T11:36:07.125Z,97630.00
2022-11-05T11:38:38.003Z,97639.00
2022-11-05T11:41:24.813Z,97640.00
2022-11-05T11:43:58.349Z,97634.00
2022-11-05T11:46:27.121Z,97637.00
2022-11-05T11:48:55.444Z,97647.00
2022-11-05T11:51:35.098Z,97649.00
2022-11-05T11:54:06.337Z,97645.00
2022-11-05T11:56:45.714Z,97651.00
2022-11-05T11:59:46.678Z,97646.00
2022-11-05T12:03:03.951Z,97642.00
2022-11-05T12:05:41.910Z,97648.00
2022-11-05T12:08:45.568Z,97646.00
2022-11-05T12:11:22.080Z,97640.00
2022-11-05T12:14:05.524Z,97636.00
2022-11-05T12:17:03.940Z,97637.00
2022-11-05T12:20:09.985Z,97644.00
2022-11-05T12:23:15.043Z,97647.00
2022-11-05T12:25:52.684Z,97638.00
2022-11-05T12:29:16.729Z,97638.00
2022-11-05T12:31:54.955Z,97652.00
2022-11-05T12:34:41.692Z,97639.00
2022-11-05T12:37:25.593Z,97638.00
2022-11-05T12:40:23.589Z,97646.00
2022-11-05T12:43:11.416Z,97641.00
2022-11-05T12:45:51.546Z,97642.00
2022-11-05T12:49:00.521Z,97657.00
2022-11-05T12:51:48.219Z,97646.00
2022-11-05T12:54:35.782Z,97656.00
2022-11-05T12:57:06.710Z,97652.00
2022-11-05T12:59:41.085Z,97646.00
2022-11-05T13:02:24.215Z,97659.00
2022-11-05T13:04:57.394Z,97655.00
2022-11-05T13:07:32.725Z,97654.00
2022-11-05T13:10:08.809Z,97657.00
2022-11-05T13:12:43.443Z,97662.00
2022-11-05T13:15:29.044Z,97670.00
2022-11-05T13:18:03.884Z,97681.00
2022-11-05T13:20:38.487Z,97672.00
2022-11-05T13:23:20.912Z,97673.00
2022-11-05T13:25:56.660Z,97666.00
2022-11-05T13:28:39.474Z,97674.00
2022-11-05T13:31:14.507Z,97674.00
2022-11-05T13:33:48.211Z,97673.00
2022-11-05T13:36:40.690Z,97688.00
2022-11-05T13:39:19.244Z,97670.00
2022-11-05T13:42:09.459Z,97665.00
2022-11-05T13:45:19.651Z,97666.00
2022-11-05T13:48:07.016Z,97677.00
2022-11-05T13:51:13.263Z,97682.00
2022-11-05T13:54:11.196Z,97681.00
2022-11-05T13:57:00.592Z,97693.00
2022-11-05T14:00:08.122Z,97694.00
2022-11-05T14:02:43.746Z,97673.00
2022-11-05T14:05:25.702Z,97679.00
2022-11-05T14:07:56.546Z,97692.00
2022-11-05T14:10:37.415Z,97695.00
2022-11-05T14:13:23.774Z,97694.00
2022-11-05T14:16:05.406Z,97698.00
2022-11-05T14:18:44.773Z,97696.00
2022-11-05T14:21:48.335Z,97684.00
2022-11-05T14:24:43.162Z,97695.00
2022-11-05T14:27:46.534Z,97703.00
2022-11-05T14:30:45.848Z,97698.00
2022-11-05T14:33:30.395Z,97694.00
2022-11-05T14:36:36.436Z,97700.00
2022-11-05T14:39:23.421Z,97707.00
2022-11-05T14:42:01.749Z,97703.00
2022-11-05T14:44:31.749Z,97700.00
2022-11-05T14:47:04.083Z,97702.00
2022-11-05T14:49:38.354Z,97693.00
2022-11-05T14:52:11.227Z,97703.00
2022-11-05T14:54:47.398Z,97716.00
2022-11-05T14:57:55.969Z,97697.00
2022-11-05T15:00:50.281Z,97715.00
2022-11-05T15:03:47.068Z,97711.00
2022-11-05T15:06:31.837Z,97722.00
2022-11-05T15:09:19.354Z,97718.00
2022-11-05T15:12:02.438Z,97725.00
2022-11-05T15:14:35.921Z,97724.00
2022-11-05T15:17:18.648Z,97724.00
2022-11-05T15:19:48.641Z,97740.00
2022-11-05T15:22:31.539Z,97734.00
2022-11-05T15:25:00.337Z,97731.00
2022-11-05T15:27:50.448Z,97735.00
2022-11-05T15:30:23.591Z,97734.00
2022-11-05T15:32:52.718Z,97728.00
2022-11-05T15:35:27.917Z,97730.00
2022-11-05T15:38:02.000Z,97745.00
2022-11-05T15:40:33.702Z,97749.00
2022-11-05T15:43:19.419Z,97752.00
2022-11-05T15:46:06.627Z,97745.00
2022-11-05T15:48:36.574Z,97762.00
2022-11-05T15:51:05.480Z,97739.00
2022-11-05T15:54:28.528Z,97743.00
2022-11-05T15:56:51.843Z,97755.00
2022-11-05T15:59:22.983Z,97750.00
2022-11-05T16:01:57.681Z,97746.00
2022-11-05T16:04:30.091Z,97748.00
2022-11-05T16:07:02.291Z,97761.00
2022-11-05T16:09:35.773Z,97756.00
2022-11-05T16:12:16.146Z,97755.00
2022-11-05T16:14:44.544Z,97761.00
2022-11-05T16:17:21.826Z,97769.00
2022-11-05T16:19:51.751Z,97768.00
2022-11-05T16:22:21.125Z,97770.00
2022-11-05T16:24:50.560Z,97767.00
2022-11-05T16:27:21.964Z,97766.00
2022-11-05T16:29:53.857Z,97784.00
2022-11-05T16:32:30.638Z,97784.00
2022-11-05T16:35:02.113Z,97774.00
2022-11-05T16:37:39.637Z,97793.00
2022-11-05T16:40:15.744Z,97787.00
2022-11-05T16:42:48.145Z,97784.00
2022-11-05T16:45:19.401Z,97796.00
2022-11-05T16:47:49.879Z,97801.00
2022-11-05T16:50:24.259Z,97805.00
2022-11-05T16:52:53.536Z,97808.00
2022-11-05T16:55:21.823Z,97817.00
2022-11-05T16:57:55.357Z,97820.00
2022-11-05T17:00:25.075Z,97823.00
2022-11-05T17:02:55.592Z,97812.00
2022-11-05T17:05:27.905Z,97829.00
2022-11-05T17:07:57.138Z,97815.00
2022-11-05T17:10:27.554Z,97815.00
2022-11-05T17:12:56.050Z,97821.00
2022-11-05T17:15:27.335Z,97823.00
2022-11-05T17:17:57.526Z,97825.00
2022-11-05T17:20:40.640Z,97833.00
2022-11-05T17:23:11.308Z,97835.00
2022-11-05T17:25:41.027Z,97831.00
2022-11-05T17:28:10.991Z,97835.00
2022-11-05T17:30:41.941Z,97840.00
2022-11-05T17:33:13.014Z,97839.00
2022-11-05T17:35:42.357Z,97840.00
2022-11-05T17:38:11.405Z,97844.00
2022-11-05T17:40:40.941Z,97844.00
2022-11-05T17:43:10.041Z,97842.00
2022-11-05T17:45:43.861Z,97844.00
2022-11-05T17:48:13.875Z,97855.00
2022-11-05T17:50:43.745Z,97840.00
2022-11-05T17:53:13.249Z,97844.00
2022-11-05T17:55:42.600Z,97848.00
2022-11-05T17:58:11.546Z,97844.00
2022-11-05T18:00:41.018Z,97844.00
2022-11-05T18:03:11.021Z,97837.00
2022-11-05T18:05:42.212Z,97843.00
2022-11-05T18:08:11.117Z,97847.00
2022-11-05T18:10:41.603Z,97859.00
2022-11-05T18:13:11.156Z,97853.00
2022-11-05T18:15:41.921Z,97860.00
2022-11-05T18:18:10.733Z,97853.00
2022-11-05T18:20:40.434Z,97862.00
2022-11-05T18:23:08.573Z,97855.00
2022-11-05T18:25:37.078Z,97858.00
2022-11-05T18:28:05.424Z,97865.00
2022-11-05T18:30:34.209Z,97861.00
2022-11-05T18:33:02.464Z,97863.00
2022-11-05T18:35:30.758Z,97874.00
2022-11-05T18:38:00.528Z,97863.00
2022-11-05T18:40:28.706Z,97878.00
2022-11-05T18:42:56.799Z,97870.00
2022-11-05T18:45:29.572Z,97864.00
2022-11-05T18:47:58.084Z,97864.00
2022-11-05T18:50:26.277Z,97864.00
2022-11-05T18:52:54.413Z,97861.00
2022-11-05T18:55:24.409Z,97876.00
2022-11-05T18:57:54.239Z,97884.00
2022-11-05T19:00:22.660Z,97880.00
2022-11-05T19:02:50.813Z,97872.00
2022-11-05T19:05:34.497Z,97875.00
2022-11-05T19:08:02.718Z,97883.00
2022-11-05T19:10:32.268Z,97884.00
2022-11-05T19:13:00.435Z,97883.00
2022-11-05T19:15:28.563Z,97873.00
2022-11-05T19:17:56.883Z,97887.00
2022-11-05T19:20:25.069Z,97884.00
2022-11-05T19:22:53.162Z,97885.00
2022-11-05T19:25:21.403Z,97887.00
2022-11-05T19:27:51.061Z,97883.00
2022-11-05T19:30:19.352Z,97879.00
2022-11-05T19:32:47.677Z,97882.00
2022-11-05T19:35:15.919Z,97883.00
2022-11-05T19:37:44.243Z,97886.00
2022-11-05T19:40:13.284Z,97908.00
2022-11-05T19:42:41.516Z,97889.00
2022-11-05T19:45:42.900Z,97897.00
2022-11-05T19:48:03.310Z,97894.00
2022-11-05T19:50:31.622Z,97888.00
2022-11-05T19:52:59.829Z,97889.00
2022-11-05T19:55:28.240Z,97886.00
2022-11-05T19:57:56.426Z,97884.00
2022-11-05T20:00:26.216Z,97892.00
2022-11-05T20:02:54.476Z,97896.00
2022-11-05T20:05:22.903Z,97905.00
2022-11-05T20:07:53.034Z,97904.00
2022-11-05T20:10:22.219Z,97899.00
2022-11-05T20:12:50.669Z,97895.00
2022-11-05T20:15:19.672Z,97913.00
2022-11-05T20:17:52.254Z,97920.00
2022-11-05T20:20:21.661Z,97920.00
2022-11-05T20:22:51.912Z,97927.00
2022-11-05T20:25:20.303Z,97927.00
2022-11-05T20:27:48.798Z,97934.00
2022-11-05T20:30:18.507Z,97922.00
2022-11-05T20:32:46.831Z,97924.00
2022-11-05T20:35:16.411Z,97942.00
2022-11-05T20:37:47.323Z,97928.00
2022-11-05T20:40:18.342Z,97930.00
2022-11-05T20:42:46.468Z,97923.00
2022-11-05T20:45:14.566Z,97922.00
2022-11-05T20:47:43.539Z,97929.00
2022-11-05T20:50:11.729Z,97930.00
2022-11-05T20:52:41.396Z,97928.00
2022-11-05T20:55:10.236Z,97941.00
2022-11-05T20:57:38.794Z,97931.00
2022-11-05T21:00:09.428Z,97932.00
2022-11-05T21:02:41.182Z,97924.00
2022-11-05T21:05:10.256Z,97922.00
2022-11-05T21:07:39.921Z,97922.00
2022-11-05T21:10:08.388Z,97937.00
2022-11-05T21:12:36.471Z,97948.00
2022-11-05T21:15:05.600Z,97953.00
2022-11-05T21:17:33.730Z,97934.00
2022-11-05T21:20:01.837Z,97946.00
2022-11-05T21:22:29.955Z,97957.00
2022-11-05T21:24:59.408Z,97950.00
2022-11-05T21:27:27.538Z,97949.00
2022-11-05T21:29:55.670Z,97940.00
2022-11-05T21:32:23.765Z,97948.00
2022-11-05T21:34:51.938Z,97945.00
2022-11-05T21:37:20.327Z,97942.00
2022-11-05T21:39:48.558Z,97934.00
2022-11-05T21:42:18.110Z,97936.00
2022-11-05T21:44:46.263Z,97945.00
2022-11-05T21:47:14.487Z,97937.00
2022-11-05T21:49:42.632Z,97947.00
2022-11-05T21:52:30.136Z,97947.00
2022-11-05T21:55:24.124Z,97943.00
2022-11-05T21:58:11.634Z,97948.00
2022-11-05T22:00:40.001Z,97938.00
2022-11-05T22:03:08.186Z,97939.00
2022-11-05T22:05:36.353Z,97934.00
2022-11-05T22:08:04.633Z,97938.00
2022-11-05T22:10:32.735Z,97928.00
2022-11-05T22:13:02.407Z,97928.00
2022-11-05T22:15:30.518Z,97916.00
2022-11-05T22:17:58.810Z,97944.00
2022-11-05T22:20:27.016Z,97926.00
2022-11-05T22:22:55.595Z,97932.00
2022-11-05T22:25:23.841Z,97922.00
2022-11-05T22:27:51.944Z,97923.00
2022-11-05T22:30:21.425Z,97925.00
2022-11-05T22:32:49.642Z,97931.00
2022-11-05T22:35:17.838Z,97934.00
2022-11-05T22:37:46.377Z,97943.00
2022-11-05T22:40:14.504Z,97951.00
2022-11-05T22:42:42.644Z,97942.00
2022-11-05T22:45:11.728Z,97943.00
2022-11-05T22:47:42.608Z,97939.00
2022-11-05T22:50:11.163Z,97942.00
2022-11-05T22:52:39.238Z,97936.00
2022-11-05T22:55:08.125Z,97937.00
2022-11-05T22:57:36.293Z,97934.00
2022-11-05T23:00:17.024Z,97939.00
2022-11-05T23:02:46.739Z,97931.00
2022-11-05T23:05:15.970Z,97935.00
2022-11-05T23:08:01.682Z,97936.00
2022-11-05T23:10:47.520Z,97925.00
2022-11-05T23:13:15.668Z,97920.00
2022-11-05T23:16:01.376Z,97917.00
2022-11-05T23:18:48.292Z,97915.00
2022-11-05T23:21:33.902Z,97914.00
2022-11-05T23:24:07.765Z,97924.00
2022-11-05T23:26:52.835Z,97925.00
2022-11-05T23:29:23.993Z,97929.00
2022-11-05T23:32:10.453Z,97931.00
2022-11-05T23:34:40.187Z,97923.00
2022-11-05T23:37:26.078Z,97914.00
2022-11-05T23:39:54.205Z,97904.00
2022-11-05T23:42:39.953Z,97910.00
2022-11-05T23:45:27.546Z,97914.00
2022-11-05T23:48:13.586Z,97913.00
2022-11-05T23:50:44.459Z,97904.00
2022-11-05T23:53:12.817Z,97903.00
2022-11-05T23:55:41.008Z,97902.00
2022-11-05T23:58:09.955Z,97909.00
